Time;durP1;ratioP1;P1;durP2;ratioP2;P2;SDS_P1;SDS_P2;PMS_P1;PMS_P2;Temp;Humidity;BMP_temperature;BMP_pressure;BME280_temperature;BME280_humidity;BME280_pressure;Samples;Min_cycle;Max_cycle;Signal;HPM_P1;HPM_P2
2021/01/05 00:03:10;;;;;;;32.67;15.18;;;;;;;1.33;91.92;99951.63;18517564;28;20039;-70
2021/01/05 00:12:16;;;;;;;27.33;13.65;;;;;;;1.32;91.55;99941.38;18516984;28;20050;-70
2021/01/05 00:21:17;;;;;;;32.95;14.27;;;;;;;1.16;91.81;99938.31;18520177;28;20448;-70
2021/01/05 00:30:24;;;;;;;30.67;12.88;;;;;;;1.20;91.02;99934.78;18515881;28;20046;-71
2021/01/05 00:39:24;;;;;;;31.60;14.30;;;;;;;1.13;91.38;99928.91;18516143;28;20055;-70
2021/01/05 00:48:25;;;;;;;29.15;13.52;;;;;;;1.22;91.03;99931.25;18514233;28;20422;-71
2021/01/05 00:57:26;;;;;;;32.92;14.98;;;;;;;1.25;91.96;99938.94;18515662;28;20098;-70
2021/01/05 01:06:27;;;;;;;30.50;14.25;;;;;;;1.19;91.01;99940.81;18511840;28;20059;-71
2021/01/05 01:15:28;;;;;;;29.38;14.27;;;;;;;1.30;90.71;99936.25;18510927;28;20411;-70
2021/01/05 01:24:29;;;;;;;29.33;14.20;;;;;;;1.37;91.37;99953.28;18510462;28;20074;-70
2021/01/05 01:33:34;;;;;;;29.67;14.13;;;;;;;1.30;92.68;99943.97;18511735;28;20193;-70
2021/01/05 01:42:35;;;;;;;29.88;14.15;;;;;;;1.19;94.88;99938.22;18512060;28;20046;-70
2021/01/05 01:51:36;;;;;;;37.22;16.88;;;;;;;1.29;94.34;99930.25;18509471;28;20155;-70
2021/01/05 02:00:42;;;;;;;29.98;14.63;;;;;;;1.33;95.50;99920.69;18510167;28;20049;-70
2021/01/05 02:10:15;;;;;;;29.77;14.93;;;;;;;1.27;97.45;99931.13;18511663;28;20086;-70
2021/01/05 02:19:36;;;;;;;30.55;14.95;;;;;;;1.37;97.54;99936.94;18501699;28;20125;-71
2021/01/05 02:28:43;;;;;;;30.98;14.50;;;;;;;1.33;97.92;99941.31;18509908;28;20063;-70
2021/01/05 02:38:39;;;;;;;25.52;13.32;;;;;;;1.33;99.48;99940.47;18509339;28;20414;-70
2021/01/05 02:48:02;;;;;;;22.30;12.10;;;;;;;1.27;99.71;99933.72;18473700;28;20047;-70
2021/01/05 02:57:37;;;;;;;23.55;11.23;;;;;;;1.29;100.00;99932.81;18509812;28;20043;-70
2021/01/05 03:06:44;;;;;;;19.83;11.15;;;;;;;1.41;98.90;99926.53;18506890;28;20089;-70
2021/01/05 03:15:55;;;;;;;21.92;10.82;;;;;;;1.45;99.14;99930.72;18521928;28;20043;-70
2021/01/05 03:24:59;;;;;;;22.95;10.80;;;;;;;1.42;99.27;99930.81;18509638;28;20062;-70
2021/01/05 03:34:01;;;;;;;;;;;;;;;1.37;100.00;99927.50;18520071;28;20090;-70
2021/01/05 03:43:02;;;;;;;20.42;10.82;;;;;;;1.40;99.78;99935.13;18520242;28;19930;-70
2021/01/05 03:52:04;;;;;;;21.52;11.27;;;;;;;1.39;100.00;99936.00;18519332;28;20134;-69
2021/01/05 04:01:05;;;;;;;23.42;11.40;;;;;;;1.47;99.67;99939.28;18519929;28;20526;-69
2021/01/05 04:10:07;;;;;;;19.90;11.00;;;;;;;1.38;100.00;99936.91;18518546;28;20042;-69
2021/01/05 04:19:07;;;;;;;22.02;11.43;;;;;;;1.36;100.00;99930.94;18513541;28;20411;-70
2021/01/05 04:28:08;;;;;;;22.48;12.13;;;;;;;1.41;100.00;99939.41;18517451;28;20097;-70
2021/01/05 04:37:09;;;;;;;19.80;10.77;;;;;;;1.37;100.00;99936.94;18515530;28;20039;-72
2021/01/05 04:46:26;;;;;;;21.25;12.25;;;;;;;1.34;100.00;99939.59;18515041;28;20122;-71
2021/01/05 04:55:42;;;;;;;25.70;12.82;;;;;;;1.33;100.00;99951.63;18514500;28;20463;-71
2021/01/05 05:04:55;;;;;;;22.35;11.88;;;;;;;1.25;100.00;99953.56;18514289;28;20070;-71
2021/01/05 05:14:02;;;;;;;24.03;12.23;;;;;;;1.30;100.00;99959.44;18509185;28;20078;-71
2021/01/05 05:23:30;;;;;;;24.10;12.00;;;;;;;1.19;100.00;99962.28;18513684;28;20046;-70
2021/01/05 05:32:48;;;;;;;25.52;13.23;;;;;;;1.21;100.00;99977.72;18510704;28;20046;-70
2021/01/05 05:42:03;;;;;;;22.95;12.65;;;;;;;1.24;100.00;99987.94;18509777;28;20526;-71
2021/01/05 05:51:17;;;;;;;26.98;13.10;;;;;;;1.10;100.00;99988.25;18512053;28;20058;-70
2021/01/05 06:00:28;;;;;;;24.77;12.75;;;;;;;1.16;100.00;99992.44;18510550;28;20054;-71
2021/01/05 06:09:29;;;;;;;26.40;13.98;;;;;;;1.07;100.00;99990.88;18511884;28;20050;-71
2021/01/05 06:18:30;;;;;;;27.13;13.07;;;;;;;1.13;100.00;99992.47;18510812;28;20047;-70
2021/01/05 06:27:31;;;;;;;25.20;13.23;;;;;;;1.02;100.00;100008.19;18509905;28;20051;-70
2021/01/05 06:36:32;;;;;;;25.40;13.00;;;;;;;1.13;100.00;100018.25;18509720;28;20035;-70
2021/01/05 06:45:33;;;;;;;30.30;14.25;;;;;;;1.12;100.00;100021.72;18516892;28;20046;-70
2021/01/05 06:54:34;;;;;;;26.80;13.07;;;;;;;1.11;100.00;100027.78;18522935;28;20085;-70
2021/01/05 07:03:35;;;;;;;25.77;12.32;;;;;;;1.08;100.00;100030.38;18516279;28;20055;-70
2021/01/05 07:12:36;;;;;;;26.73;12.85;;;;;;;1.00;100.00;100033.16;18527717;28;20046;-70
2021/01/05 07:21:37;;;;;;;25.58;12.07;;;;;;;1.03;100.00;100027.06;18527371;28;20491;-71
2021/01/05 07:30:38;;;;;;;26.20;12.43;;;;;;;1.01;100.00;100031.44;18526137;28;20410;-71
2021/01/05 07:39:39;;;;;;;26.08;12.05;;;;;;;1.08;100.00;100038.13;18525086;28;20043;-70
2021/01/05 07:48:41;;;;;;;28.52;14.00;;;;;;;1.01;100.00;100049.47;18525238;28;20470;-69
2021/01/05 07:57:42;;;;;;;27.63;12.93;;;;;;;1.02;100.00;100051.97;18527591;28;20066;-69
2021/01/05 08:06:43;;;;;;;25.65;12.30;;;;;;;1.03;100.00;100050.25;18511754;28;20131;-69
2021/01/05 08:15:44;;;;;;;31.25;12.70;;;;;;;1.08;100.00;100051.00;18523419;28;20051;-69
2021/01/05 08:24:45;;;;;;;26.10;13.02;;;;;;;1.33;100.00;100051.31;18503792;28;20050;-69
2021/01/05 08:33:45;;;;;;;27.23;13.55;;;;;;;1.13;100.00;100046.59;18513199;28;20049;-69
2021/01/05 08:42:46;;;;;;;28.13;14.02;;;;;;;1.24;100.00;100047.22;18512584;28;20805;-69
2021/01/05 08:51:47;;;;;;;29.95;13.25;;;;;;;1.23;100.00;100048.09;18507005;28;20055;-69
2021/01/05 09:00:48;;;;;;;27.13;12.35;;;;;;;1.10;100.00;100044.97;18512430;28;20047;-69
2021/01/05 09:09:51;;;;;;;23.48;12.70;;;;;;;1.38;100.00;100042.59;18511159;28;20070;-69
2021/01/05 09:18:54;;;;;;;23.00;12.18;;;;;;;1.36;100.00;100038.38;18513159;28;20043;-69
2021/01/05 09:27:56;;;;;;;26.70;13.10;;;;;;;1.33;100.00;100031.53;18518465;28;21540;-69
2021/01/05 09:36:57;;;;;;;25.30;12.77;;;;;;;1.37;100.00;100034.91;18517387;28;20050;-69
2021/01/05 09:45:58;;;;;;;25.08;12.75;;;;;;;1.47;100.00;100034.69;18515003;28;20526;-70
2021/01/05 09:54:59;;;;;;;25.20;12.20;;;;;;;1.39;100.00;100039.16;18517032;28;20093;-70
2021/01/05 10:04:01;;;;;;;26.20;13.02;;;;;;;1.45;100.00;100049.31;18513370;28;20054;-69
2021/01/05 10:13:01;;;;;;;24.98;11.98;;;;;;;1.36;100.00;100057.28;18516380;28;20062;-69
2021/01/05 10:22:04;;;;;;;28.15;13.02;;;;;;;1.49;100.00;100050.09;18525559;28;20456;-68
2021/01/05 10:31:05;;;;;;;25.43;12.80;;;;;;;1.47;100.00;100046.72;18530633;28;20072;-68
2021/01/05 10:40:07;;;;;;;26.45;13.50;;;;;;;1.53;100.00;100041.41;18530491;28;20046;-68
2021/01/05 10:49:09;;;;;;;25.45;13.00;;;;;;;1.54;100.00;100037.94;18532227;28;20042;-68
2021/01/05 10:58:10;;;;;;;25.52;12.48;;;;;;;1.58;100.00;100037.81;18529226;28;20050;-69
2021/01/05 11:07:14;;;;;;;28.38;14.20;;;;;;;1.71;100.00;100021.19;18527545;28;20050;-69
2021/01/05 11:16:15;;;;;;;25.27;13.27;;;;;;;1.59;100.00;100016.31;18526915;28;20062;-69
2021/01/05 11:25:18;;;;;;;27.75;14.05;;;;;;;1.63;100.00;100017.94;18528253;28;20499;-69
2021/01/05 11:34:19;;;;;;;34.08;15.52;;;;;;;1.62;100.00;100023.16;18525860;28;20058;-68
2021/01/05 11:43:20;;;;;;;27.38;14.35;;;;;;;1.66;100.00;100002.41;18528056;28;20043;-68
2021/01/05 11:52:21;;;;;;;29.02;14.50;;;;;;;1.80;100.00;100003.78;18525046;28;20046;-69
2021/01/05 12:01:23;;;;;;;27.48;14.98;;;;;;;1.86;100.00;99994.16;18524756;28;20043;-69
2021/01/05 12:10:24;;;;;;;27.80;14.50;;;;;;;1.94;100.00;99991.38;18525377;28;20065;-68
2021/01/05 12:19:28;;;;;;;30.65;14.32;;;;;;;1.97;100.00;99981.84;18512960;28;20514;-69
2021/01/05 12:28:28;;;;;;;30.13;15.70;;;;;;;2.12;99.33;99975.41;18509466;28;20471;-69
2021/01/05 12:37:29;;;;;;;29.42;15.05;;;;;;;2.14;99.09;99978.78;18514783;28;20043;-70
2021/01/05 12:46:33;;;;;;;27.52;14.38;;;;;;;1.96;100.00;99966.38;18519408;28;20047;-69
2021/01/05 12:55:35;;;;;;;30.45;13.82;;;;;;;2.04;100.00;99964.44;18519856;28;20073;-69
2021/01/05 13:04:36;;;;;;;29.00;14.52;;;;;;;1.94;100.00;99961.25;18507019;28;20447;-71
2021/01/05 13:13:38;;;;;;;29.10;14.55;;;;;;;2.06;100.00;99960.09;18521954;28;20047;-71
2021/01/05 13:22:41;;;;;;;34.45;15.63;;;;;;;2.02;100.00;99958.50;18521945;28;20047;-70
2021/01/05 13:31:53;;;;;;;34.13;17.80;;;;;;;1.99;100.00;99976.63;18522946;28;20069;-70
2021/01/05 13:40:55;;;;;;;32.83;16.50;;;;;;;1.96;100.00;99972.41;18521648;28;20101;-69
2021/01/05 13:49:56;;;;;;;32.70;16.45;;;;;;;1.99;100.00;99981.78;18521455;28;20055;-70
2021/01/05 13:59:15;;;;;;;37.50;18.30;;;;;;;1.96;100.00;99990.47;18518231;28;20062;-70
2021/01/05 14:08:16;;;;;;;34.92;18.30;;;;;;;1.99;100.00;99987.78;18518685;28;20050;-69
2021/01/05 14:17:21;;;;;;;33.45;18.63;;;;;;;1.98;100.00;99998.16;18518516;28;20039;-70
2021/01/05 14:26:23;;;;;;;35.33;18.55;;;;;;;2.04;100.00;100005.72;18517628;28;20050;-70
2021/01/05 14:35:24;;;;;;;41.30;19.95;;;;;;;1.89;100.00;99994.06;18513237;28;20050;-69
2021/01/05 14:44:28;;;;;;;42.60;19.77;;;;;;;1.85;100.00;100001.94;18518951;28;20061;-69
2021/01/05 14:53:30;;;;;;;38.42;17.55;;;;;;;1.77;100.00;100009.03;18516505;28;20081;-69
2021/01/05 15:02:30;;;;;;;43.55;19.77;;;;;;;1.84;100.00;100010.56;18516813;28;20042;-69
2021/01/05 15:11:35;;;;;;;40.20;19.30;;;;;;;1.89;100.00;100003.53;18530093;28;20050;-69
2021/01/05 15:20:36;;;;;;;32.50;16.25;;;;;;;1.91;100.00;100012.09;18530126;28;20538;-69
2021/01/05 15:29:37;;;;;;;32.83;16.45;;;;;;;1.94;100.00;100028.34;18524434;28;20038;-69
2021/01/05 15:38:38;;;;;;;37.88;17.13;;;;;;;1.86;100.00;100017.38;18521151;28;20046;-70
2021/01/05 15:47:39;;;;;;;37.58;18.33;;;;;;;1.96;100.00;100010.25;18527248;28;20039;-69
2021/01/05 15:56:46;;;;;;;34.50;17.27;;;;;;;1.85;100.00;100012.25;18525839;28;20488;-69
2021/01/05 16:05:47;;;;;;;36.58;17.58;;;;;;;1.82;100.00;100013.19;18521669;28;20419;-69
2021/01/05 16:14:48;;;;;;;33.42;16.95;;;;;;;1.95;100.00;100009.41;18524314;28;20053;-69
2021/01/05 16:23:49;;;;;;;32.80;16.70;;;;;;;1.85;100.00;100001.94;18524213;28;20046;-69
2021/01/05 16:32:51;;;;;;;34.38;16.10;;;;;;;1.93;100.00;100011.16;18521628;28;20050;-69
2021/01/05 16:41:54;;;;;;;32.20;15.80;;;;;;;1.92;100.00;99995.75;18521820;28;20051;-69
2021/01/05 16:50:55;;;;;;;33.47;15.70;;;;;;;1.89;100.00;99991.50;18521391;28;20061;-69
2021/01/05 16:59:56;;;;;;;30.85;15.65;;;;;;;1.84;100.00;99995.91;18522763;28;20046;-69
2021/01/05 17:08:57;;;;;;;32.03;15.23;;;;;;;1.86;100.00;99993.31;18522364;28;20051;-69
2021/01/05 17:18:02;;;;;;;32.80;16.05;;;;;;;1.86;100.00;99993.31;18519487;28;20047;-68
2021/01/05 17:27:11;;;;;;;33.92;15.43;;;;;;;1.86;100.00;99994.16;18519100;28;20075;-68
2021/01/05 17:36:13;;;;;;;30.50;15.48;;;;;;;1.89;100.00;99994.06;18518151;28;20046;-69
2021/01/05 17:45:20;;;;;;;30.00;15.48;;;;;;;1.94;100.00;99999.13;18516525;28;20138;-69
2021/01/05 17:54:21;;;;;;;31.48;14.80;;;;;;;1.87;100.00;99995.00;18519589;28;20475;-68
2021/01/05 18:03:22;;;;;;;25.38;13.75;;;;;;;1.85;100.00;99996.78;18521611;28;20050;-69
2021/01/05 18:12:23;;;;;;;29.88;15.85;;;;;;;1.92;100.00;99994.00;18518686;28;20392;-69
2021/01/05 18:21:31;;;;;;;27.73;14.57;;;;;;;1.89;100.00;100006.97;18516282;28;20118;-69
2021/01/05 18:30:32;;;;;;;28.20;14.32;;;;;;;1.89;100.00;100008.69;18519112;28;20046;-68
2021/01/05 18:39:33;;;;;;;27.70;14.10;;;;;;;1.93;100.00;100018.09;18521053;28;20487;-69
2021/01/05 18:48:34;;;;;;;33.67;15.90;;;;;;;1.98;100.00;100019.63;18529453;28;20050;-69
2021/01/05 18:57:35;;;;;;;27.10;15.43;;;;;;;1.92;100.00;100024.13;18522643;28;20051;-69
2021/01/05 19:06:37;;;;;;;35.10;16.60;;;;;;;1.92;100.00;100034.44;18523774;28;20105;-69
2021/01/05 19:15:38;;;;;;;32.22;15.00;;;;;;;1.91;100.00;100041.34;18527325;28;20063;-68
2021/01/05 19:24:39;;;;;;;24.55;13.52;;;;;;;1.99;100.00;100046.28;18528533;28;20043;-69
2021/01/05 19:33:40;;;;;;;24.25;13.20;;;;;;;1.90;100.00;100047.38;18526671;28;20038;-69
2021/01/05 19:42:44;;;;;;;30.27;15.25;;;;;;;2.03;100.00;100042.78;18519151;28;20459;-68
2021/01/05 19:51:50;;;;;;;28.77;14.85;;;;;;;2.00;100.00;100037.69;18513905;28;20073;-69
2021/01/05 20:00:52;;;;;;;29.25;14.48;;;;;;;2.09;100.00;100040.00;18517520;28;20086;-69
2021/01/05 20:09:53;;;;;;;26.58;13.45;;;;;;;1.96;100.00;100046.38;18515571;28;20066;-69
2021/01/05 20:18:53;;;;;;;27.00;12.77;;;;;;;1.90;100.00;100036.22;18512265;28;20638;-69
2021/01/05 20:27:56;;;;;;;23.58;12.25;;;;;;;1.89;100.00;100039.66;18518540;28;20063;-69
2021/01/05 20:36:57;;;;;;;26.25;12.50;;;;;;;1.99;100.00;100034.25;18504418;28;20054;-69
2021/01/05 20:46:01;;;;;;;19.85;10.55;;;;;;;1.78;100.00;100036.53;18513141;28;20046;-69
2021/01/05 20:55:05;;;;;;;20.15;11.18;;;;;;;1.68;100.00;100025.56;18519754;28;20043;-69
2021/01/05 21:04:07;;;;;;;23.00;12.15;;;;;;;1.54;100.00;100030.19;18508670;28;20700;-69
2021/01/05 21:13:12;;;;;;;22.75;12.55;;;;;;;1.55;100.00;100027.59;18512133;28;20142;-69
2021/01/05 21:22:13;;;;;;;23.20;11.68;;;;;;;1.47;100.00;100023.50;18506586;28;20042;-69
2021/01/05 21:31:14;;;;;;;24.98;13.23;;;;;;;1.41;100.00;100026.22;18505079;28;20054;-68
2021/01/05 21:40:18;;;;;;;21.05;11.60;;;;;;;1.44;100.00;100024.41;18513421;28;20050;-72
2021/01/05 21:49:20;;;;;;;24.00;12.82;;;;;;;1.38;100.00;100032.28;18517950;28;20047;-69
2021/01/05 21:58:24;;;;;;;24.48;13.35;;;;;;;1.28;100.00;100025.66;18513050;28;20503;-70
2021/01/05 22:07:25;;;;;;;26.08;13.82;;;;;;;1.36;100.00;100021.19;18512849;28;20059;-70
2021/01/05 22:16:27;;;;;;;27.30;14.25;;;;;;;1.18;100.00;100025.00;18524736;28;20050;-70
2021/01/05 22:25:29;;;;;;;34.08;16.42;;;;;;;1.24;100.00;100029.19;18540136;28;20047;-70
2021/01/05 22:34:29;;;;;;;31.92;16.33;;;;;;;1.29;100.00;100019.63;18539942;28;20419;-70
2021/01/05 22:43:31;;;;;;;31.60;17.33;;;;;;;1.24;100.00;100016.28;18536377;28;20097;-70
2021/01/05 22:52:32;;;;;;;33.20;16.50;;;;;;;1.30;100.00;100016.16;18537981;28;20058;-71
2021/01/05 23:01:49;;;;;;;36.33;18.35;;;;;;;1.30;100.00;100003.28;18536573;28;20456;-71
2021/01/05 23:10:51;;;;;;;35.08;17.88;;;;;;;1.23;100.00;99997.41;18528984;28;20054;-70
2021/01/05 23:19:52;;;;;;;35.30;17.65;;;;;;;1.14;100.00;100001.91;18533701;28;20130;-70
2021/01/05 23:28:53;;;;;;;33.97;17.33;;;;;;;1.12;100.00;99988.19;18524889;28;20082;-70
2021/01/05 23:37:55;;;;;;;41.20;17.88;;;;;;;1.13;100.00;99989.91;18520920;28;20043;-70
2021/01/05 23:46:56;;;;;;;41.15;19.30;;;;;;;0.95;100.00;99986.03;18520974;28;20055;-70
2021/01/05 23:55:57;;;;;;;40.60;19.23;;;;;;;1.04;100.00;99984.97;18520405;28;20051;-70
